createdAt,value
2017-08-18T00:00:43.863Z,94.52
2017-08-18T00:01:49.694Z,95.42
2017-08-18T00:02:55.753Z,95.37
2017-08-18T00:04:04.059Z,95.63
2017-08-18T00:05:13.600Z,96.45
2017-08-18T00:06:19.643Z,96.51
2017-08-18T00:07:25.772Z,96.36
2017-08-18T00:08:31.805Z,96.32
2017-08-18T00:09:37.968Z,96.23
2017-08-18T00:10:43.827Z,96.61
2017-08-18T00:11:49.829Z,96.66
2017-08-18T00:12:55.851Z,96.80
2017-08-18T00:14:01.996Z,97.01
2017-08-18T00:15:08.115Z,96.38
2017-08-18T00:16:14.196Z,96.54
2017-08-18T00:17:20.263Z,96.58
2017-08-18T00:18:26.328Z,96.67
2017-08-18T00:19:32.370Z,96.12
2017-08-18T00:20:38.491Z,95.99
2017-08-18T00:21:44.514Z,95.83
2017-08-18T00:22:50.562Z,95.49
2017-08-18T00:23:56.624Z,95.86
2017-08-18T00:25:08.930Z,95.52
2017-08-18T00:26:15.030Z,95.67
2017-08-18T00:27:21.085Z,95.86
2017-08-18T00:28:26.922Z,95.88
2017-08-18T00:29:32.766Z,96.21
2017-08-18T00:30:38.901Z,95.88
2017-08-18T00:31:44.927Z,95.56
2017-08-18T00:32:50.953Z,92.92
2017-08-18T00:33:56.804Z,93.47
2017-08-18T00:35:02.934Z,91.88
2017-08-18T00:36:08.656Z,91.38
2017-08-18T00:37:14.685Z,88.04
2017-08-18T00:38:20.742Z,87.33
2017-08-18T00:39:26.844Z,85.56
2017-08-18T00:40:32.998Z,84.08
2017-08-18T00:41:39.067Z,83.25
2017-08-18T00:42:44.764Z,83.38
2017-08-18T00:43:50.828Z,82.52
2017-08-18T00:44:56.858Z,83.41
2017-08-18T00:46:02.882Z,82.69
2017-08-18T00:47:08.954Z,82.81
2017-08-18T00:48:14.779Z,83.62
2017-08-18T00:49:21.347Z,83.40
2017-08-18T00:50:27.400Z,83.62
2017-08-18T00:51:33.451Z,84.12
2017-08-18T00:52:39.558Z,84.30
2017-08-18T00:53:45.417Z,84.30
2017-08-18T00:54:51.492Z,85.17
2017-08-18T00:55:57.231Z,84.62
2017-08-18T00:57:02.791Z,83.97
2017-08-18T00:58:08.828Z,83.91
2017-08-18T00:59:14.894Z,83.63
2017-08-18T01:00:20.962Z,82.91
2017-08-18T01:01:26.465Z,83.87
2017-08-18T01:02:32.593Z,84.11
2017-08-18T01:03:38.773Z,83.47
2017-08-18T01:04:44.357Z,83.86
2017-08-18T01:05:50.094Z,84.33
2017-08-18T01:06:55.320Z,83.61
2017-08-18T01:08:00.785Z,84.35
2017-08-18T01:09:06.805Z,83.48
2017-08-18T01:10:12.852Z,84.61
2017-08-18T01:11:18.908Z,84.74
2017-08-18T01:12:24.949Z,85.08
2017-08-18T01:13:31.055Z,85.11
2017-08-18T01:14:37.108Z,84.41
2017-08-18T01:15:43.190Z,84.98
2017-08-18T01:16:48.758Z,84.03
2017-08-18T01:17:54.799Z,83.87
2017-08-18T01:19:00.942Z,85.14
2017-08-18T01:20:06.610Z,86.30
2017-08-18T01:21:12.515Z,87.28
2017-08-18T01:22:18.626Z,87.30
2017-08-18T01:23:24.340Z,88.04
2017-08-18T01:24:30.449Z,88.62
2017-08-18T01:25:36.561Z,89.49
2017-08-18T01:26:42.660Z,89.39
2017-08-18T01:27:50.254Z,89.88
2017-08-18T01:28:59.488Z,89.59
2017-08-18T01:30:05.563Z,89.98
2017-08-18T01:31:11.729Z,90.50
2017-08-18T01:32:17.913Z,90.46
2017-08-18T01:33:23.993Z,90.66
2017-08-18T01:34:30.252Z,90.97
2017-08-18T01:35:36.320Z,90.99
2017-08-18T01:36:42.340Z,90.96
2017-08-18T01:37:48.366Z,91.51
2017-08-18T01:38:54.397Z,92.58
2017-08-18T01:40:00.501Z,91.17
2017-08-18T01:41:06.588Z,90.64
2017-08-18T01:42:12.642Z,90.60
2017-08-18T01:43:18.690Z,90.96
2017-08-18T01:44:24.728Z,92.07
2017-08-18T01:45:30.569Z,92.67
2017-08-18T01:46:36.669Z,92.99
2017-08-18T01:47:42.753Z,93.02
2017-08-18T01:48:50.867Z,93.56
2017-08-18T01:49:56.920Z,93.65
2017-08-18T01:51:03.042Z,93.50
2017-08-18T01:52:09.122Z,93.75
2017-08-18T01:53:15.170Z,94.14
2017-08-18T01:54:21.212Z,94.39
2017-08-18T01:55:27.280Z,94.60
2017-08-18T01:56:33.136Z,95.23
2017-08-18T01:57:39.226Z,95.00
2017-08-18T01:58:45.270Z,95.26
2017-08-18T01:59:51.340Z,95.67
2017-08-18T02:00:57.414Z,95.82
2017-08-18T02:02:03.567Z,95.73
2017-08-18T02:03:09.252Z,95.84
2017-08-18T02:04:15.303Z,95.86
2017-08-18T02:05:21.394Z,95.89
2017-08-18T02:06:27.488Z,95.76
2017-08-18T02:07:33.578Z,95.39
2017-08-18T02:08:39.699Z,95.54
2017-08-18T02:09:45.738Z,96.11
2017-08-18T02:10:51.845Z,96.18
2017-08-18T02:11:57.742Z,96.03
2017-08-18T02:13:03.806Z,96.10
2017-08-18T02:14:09.837Z,96.12
2017-08-18T02:15:15.880Z,95.84
2017-08-18T02:16:21.927Z,95.45
2017-08-18T02:17:27.979Z,94.73
2017-08-18T02:18:34.078Z,95.18
2017-08-18T02:19:40.153Z,95.08
2017-08-18T02:20:46.201Z,94.92
2017-08-18T02:21:52.258Z,95.59
2017-08-18T02:22:58.290Z,96.56
2017-08-18T02:24:04.344Z,97.04
2017-08-18T02:25:10.397Z,97.37
2017-08-18T02:26:16.423Z,97.61
2017-08-18T02:27:22.485Z,97.55
2017-08-18T02:28:28.570Z,97.33
2017-08-18T02:29:34.659Z,97.25
2017-08-18T02:30:42.544Z,96.09
2017-08-18T02:31:48.569Z,96.41
2017-08-18T02:32:54.663Z,96.58
2017-08-18T02:34:00.694Z,97.04
2017-08-18T02:35:06.818Z,97.05
2017-08-18T02:36:12.860Z,97.12
2017-08-18T02:37:18.953Z,97.14
2017-08-18T02:38:24.998Z,96.54
2017-08-18T02:39:31.026Z,95.70
2017-08-18T02:40:37.082Z,95.24
2017-08-18T02:41:43.105Z,95.81
2017-08-18T02:42:49.160Z,96.50
2017-08-18T02:43:55.265Z,96.87
2017-08-18T02:45:01.377Z,97.73
2017-08-18T02:46:07.487Z,97.82
2017-08-18T02:47:13.524Z,98.24
2017-08-18T02:48:19.571Z,98.43
2017-08-18T02:49:25.655Z,98.15
2017-08-18T02:50:31.690Z,98.50
2017-08-18T02:51:41.409Z,98.50
2017-08-18T02:52:47.691Z,98.72
2017-08-18T02:53:53.738Z,98.98
2017-08-18T02:54:59.818Z,98.33
2017-08-18T02:56:05.951Z,98.42
2017-08-18T02:57:12.044Z,98.21
2017-08-18T02:58:18.083Z,97.68
2017-08-18T02:59:24.133Z,97.51
2017-08-18T03:00:30.208Z,97.81
2017-08-18T03:01:36.061Z,98.01
2017-08-18T03:02:41.979Z,97.57
2017-08-18T03:03:48.020Z,98.26
2017-08-18T03:04:54.067Z,98.62
2017-08-18T03:06:00.122Z,98.62
2017-08-18T03:07:06.162Z,98.76
2017-08-18T03:08:12.221Z,98.21
2017-08-18T03:09:18.262Z,98.30
2017-08-18T03:10:23.941Z,97.79
2017-08-18T03:11:29.989Z,97.08
2017-08-18T03:14:18.002Z,97.50
2017-08-18T03:15:24.068Z,97.83
2017-08-18T03:21:37.946Z,98.52
2017-08-18T03:22:43.988Z,98.52
2017-08-18T03:23:50.104Z,98.64
2017-08-18T03:24:56.141Z,98.49
2017-08-18T03:26:02.243Z,97.99
2017-08-18T03:27:08.290Z,98.42
2017-08-18T03:28:14.347Z,98.77
2017-08-18T03:29:20.417Z,98.57
2017-08-18T03:30:26.473Z,97.85
2017-08-18T03:31:32.539Z,97.95
2017-08-18T03:32:38.606Z,98.38
2017-08-18T03:33:49.574Z,98.38
2017-08-18T03:35:00.566Z,98.28
2017-08-18T03:36:06.629Z,98.65
2017-08-18T03:37:12.658Z,98.97
2017-08-18T03:41:26.191Z,99.75
2017-08-18T03:44:14.878Z,100.00
2017-08-18T03:45:21.033Z,100.00
2017-08-18T03:46:27.544Z,100.00
2017-08-18T03:47:33.573Z,99.98
2017-08-18T03:48:39.621Z,99.66
2017-08-18T03:49:45.649Z,99.19
2017-08-18T03:50:51.394Z,98.89
2017-08-18T03:51:57.440Z,98.90
2017-08-18T03:53:03.589Z,98.74
2017-08-18T03:54:09.623Z,98.87
2017-08-18T03:55:16.053Z,99.13
2017-08-18T03:56:22.187Z,98.92
2017-08-18T03:57:28.255Z,98.95
2017-08-18T03:58:34.377Z,99.06
2017-08-18T03:59:40.435Z,98.98
2017-08-18T04:00:46.516Z,98.75
2017-08-18T04:02:14.502Z,99.07
2017-08-18T04:03:20.542Z,99.21
2017-08-18T04:06:03.548Z,98.70
2017-08-18T04:07:09.900Z,98.94
2017-08-18T04:08:16.749Z,98.94
2017-08-18T04:09:22.813Z,99.01
2017-08-18T04:10:28.913Z,98.95
2017-08-18T04:11:35.060Z,99.01
2017-08-18T04:12:41.105Z,99.45
2017-08-18T04:13:47.165Z,99.18
2017-08-18T04:14:53.233Z,98.83
2017-08-18T04:16:04.041Z,97.81
2017-08-18T04:17:10.149Z,98.04
2017-08-18T04:18:16.187Z,98.46
2017-08-18T04:19:22.242Z,98.67
2017-08-18T04:20:28.320Z,98.77
2017-08-18T04:21:34.454Z,98.77
2017-08-18T04:24:22.947Z,98.00
2017-08-18T04:25:29.001Z,97.81
2017-08-18T04:28:16.963Z,98.23
2017-08-18T04:29:23.183Z,98.33
2017-08-18T04:30:29.251Z,98.49
2017-08-18T04:31:35.331Z,98.54
2017-08-18T04:32:41.415Z,98.64
2017-08-18T04:33:47.505Z,98.80
2017-08-18T04:34:53.559Z,98.49
2017-08-18T04:35:58.886Z,97.90
2017-08-18T04:37:04.750Z,97.31
2017-08-18T04:38:11.760Z,96.83
2017-08-18T04:39:18.353Z,97.27
2017-08-18T04:40:24.393Z,98.13
2017-08-18T04:41:30.440Z,97.71
2017-08-18T04:42:36.527Z,97.41
2017-08-18T04:43:42.429Z,97.61
2017-08-18T04:44:49.082Z,98.31
2017-08-18T04:45:55.123Z,99.06
2017-08-18T04:47:00.987Z,98.87
2017-08-18T04:48:07.030Z,98.45
2017-08-18T04:49:13.124Z,98.52
2017-08-18T04:50:24.909Z,98.47
2017-08-18T04:53:13.155Z,98.27
2017-08-18T04:54:19.271Z,98.26
2017-08-18T04:57:14.961Z,97.53
2017-08-18T04:58:26.403Z,97.27
2017-08-18T04:59:35.157Z,96.79
2017-08-18T05:00:40.830Z,96.80
2017-08-18T05:01:46.880Z,96.82
2017-08-18T05:02:52.964Z,96.77
2017-08-18T05:03:59.017Z,97.05
2017-08-18T05:05:05.124Z,96.92
2017-08-18T05:06:11.199Z,97.01
2017-08-18T05:07:17.259Z,97.04
2017-08-18T05:08:23.315Z,96.97
2017-08-18T05:09:29.519Z,97.01
2017-08-18T05:10:35.572Z,97.20
2017-08-18T05:11:41.621Z,97.55
2017-08-18T05:12:47.660Z,97.73
2017-08-18T05:13:53.733Z,97.92
2017-08-18T05:14:59.769Z,98.46
2017-08-18T05:16:05.881Z,98.62
2017-08-18T05:17:11.952Z,98.79
2017-08-18T05:18:18.040Z,98.41
2017-08-18T05:19:24.112Z,97.89
2017-08-18T05:20:30.217Z,97.63
2017-08-18T05:21:37.152Z,97.76
2017-08-18T05:22:43.577Z,97.45
2017-08-18T05:23:49.652Z,97.46
2017-08-18T05:24:55.717Z,97.42
2017-08-18T05:26:01.911Z,97.27
2017-08-18T05:27:07.988Z,97.29
2017-08-18T05:28:14.082Z,97.58
2017-08-18T05:29:20.154Z,97.34
2017-08-18T05:30:26.212Z,96.67
2017-08-18T05:31:32.407Z,96.29
2017-08-18T05:32:38.744Z,95.92
2017-08-18T05:33:44.812Z,96.21
2017-08-18T05:34:50.881Z,96.08
2017-08-18T05:35:56.943Z,95.76
2017-08-18T05:37:03.165Z,96.06
2017-08-18T05:38:09.238Z,96.21
2017-08-18T05:39:15.310Z,96.04
2017-08-18T05:40:22.928Z,96.28
2017-08-18T05:41:32.242Z,95.82
2017-08-18T05:42:38.349Z,95.01
2017-08-18T05:43:44.452Z,95.42
2017-08-18T05:44:50.530Z,95.15
2017-08-18T05:45:56.606Z,95.16
2017-08-18T05:47:02.792Z,94.41
2017-08-18T05:48:08.952Z,94.12
2017-08-18T05:49:15.035Z,93.90
2017-08-18T05:50:21.117Z,93.90
2017-08-18T05:51:27.299Z,93.68
2017-08-18T05:52:33.366Z,93.37
2017-08-18T05:53:39.507Z,93.39
2017-08-18T05:54:45.619Z,93.67
2017-08-18T05:55:51.695Z,93.37
2017-08-18T05:56:57.820Z,93.28
2017-08-18T05:59:46.765Z,92.97
2017-08-18T06:00:59.381Z,93.21
2017-08-18T06:02:28.147Z,92.91
2017-08-18T06:03:34.027Z,91.78
2017-08-18T06:04:40.121Z,91.63
2017-08-18T06:05:46.197Z,91.19
2017-08-18T06:06:52.305Z,90.27
2017-08-18T06:07:58.361Z,90.00
2017-08-18T06:09:03.725Z,89.70
2017-08-18T06:10:09.871Z,89.95
2017-08-18T06:11:15.953Z,89.46
2017-08-18T06:12:22.009Z,89.79
2017-08-18T06:13:29.293Z,89.00
2017-08-18T06:14:35.349Z,88.71
2017-08-18T06:15:41.423Z,88.54
2017-08-18T06:16:47.445Z,87.32
2017-08-18T06:17:53.498Z,86.14
2017-08-18T06:18:59.550Z,86.88
2017-08-18T06:21:48.206Z,84.90
2017-08-18T06:22:54.047Z,84.69
2017-08-18T06:25:36.559Z,83.15
2017-08-18T06:26:42.631Z,82.24
2017-08-18T06:27:48.669Z,82.78
2017-08-18T06:28:54.707Z,82.28
2017-08-18T06:30:00.725Z,81.39
2017-08-18T06:31:06.742Z,81.78
2017-08-18T06:32:12.788Z,82.59
2017-08-18T06:33:18.802Z,82.15
2017-08-18T06:34:24.842Z,82.35
2017-08-18T06:35:30.911Z,81.86
2017-08-18T06:36:36.921Z,82.45
2017-08-18T06:37:42.982Z,81.92
2017-08-18T06:38:48.997Z,83.06
2017-08-18T06:39:55.019Z,81.54
2017-08-18T06:41:04.785Z,81.61
2017-08-18T06:42:17.141Z,82.54
2017-08-18T06:43:24.333Z,81.21
2017-08-18T06:44:30.606Z,80.96
2017-08-18T06:45:36.902Z,80.06
2017-08-18T06:46:43.299Z,79.40
2017-08-18T06:47:49.350Z,80.19
2017-08-18T06:48:55.436Z,80.44
2017-08-18T06:50:01.500Z,79.72
2017-08-18T06:51:07.569Z,81.36
2017-08-18T06:52:13.584Z,79.75
2017-08-18T06:53:19.621Z,79.54
2017-08-18T06:54:25.687Z,79.50
2017-08-18T06:55:31.712Z,77.64
2017-08-18T06:56:37.722Z,78.39
2017-08-18T06:57:43.761Z,78.89
2017-08-18T06:58:49.786Z,79.00
2017-08-18T06:59:55.872Z,78.05
2017-08-18T07:01:01.954Z,77.78
2017-08-18T07:02:07.982Z,76.39
2017-08-18T07:03:13.993Z,76.39
2017-08-18T07:04:20.041Z,76.64
2017-08-18T07:05:26.614Z,74.85
2017-08-18T07:06:32.651Z,74.99
2017-08-18T07:07:38.703Z,74.36
2017-08-18T07:08:44.734Z,72.84
2017-08-18T07:09:50.791Z,73.03
2017-08-18T07:10:56.865Z,73.90
2017-08-18T07:12:02.967Z,73.48
2017-08-18T07:13:08.982Z,73.36
2017-08-18T07:14:15.025Z,73.02
2017-08-18T07:15:21.082Z,73.09
2017-08-18T07:16:27.138Z,72.05
2017-08-18T07:17:33.176Z,72.17
2017-08-18T07:18:39.213Z,71.49
2017-08-18T07:19:45.288Z,71.66
2017-08-18T07:20:51.298Z,71.95
2017-08-18T07:21:57.358Z,71.78
2017-08-18T07:23:03.444Z,70.81
2017-08-18T07:24:09.465Z,71.01
2017-08-18T07:25:15.495Z,70.76
2017-08-18T07:26:21.580Z,70.27
2017-08-18T07:27:27.914Z,70.94
2017-08-18T07:28:33.965Z,69.65
2017-08-18T07:29:40.023Z,68.30
2017-08-18T07:30:46.078Z,68.26
2017-08-18T07:31:52.208Z,67.47
2017-08-18T07:32:58.273Z,67.49
2017-08-18T07:34:04.345Z,66.75
2017-08-18T07:35:10.411Z,66.96
2017-08-18T07:36:16.463Z,67.37
2017-08-18T07:37:22.577Z,65.58
2017-08-18T07:38:28.624Z,66.55
2017-08-18T07:39:34.681Z,67.87
2017-08-18T07:40:40.733Z,67.09
2017-08-18T07:41:46.824Z,67.94
2017-08-18T07:42:52.937Z,67.48
2017-08-18T07:43:59.013Z,66.94
2017-08-18T07:45:07.689Z,67.59
2017-08-18T07:46:13.755Z,66.14
2017-08-18T07:47:19.789Z,66.26
2017-08-18T07:48:25.903Z,65.75
2017-08-18T07:49:31.959Z,65.72
2017-08-18T07:50:38.036Z,65.63
2017-08-18T07:51:44.072Z,66.69
2017-08-18T07:52:50.105Z,64.96
2017-08-18T07:53:56.147Z,65.81
2017-08-18T07:55:02.261Z,66.16
2017-08-18T07:56:08.325Z,65.01
2017-08-18T07:57:14.385Z,65.26
2017-08-18T07:58:20.466Z,64.46
2017-08-18T07:59:26.569Z,65.69
2017-08-18T08:00:32.594Z,66.09
2017-08-18T08:01:38.673Z,65.12
2017-08-18T08:02:44.696Z,64.87
2017-08-18T08:03:50.728Z,64.74
2017-08-18T08:04:56.837Z,63.89
2017-08-18T08:06:05.906Z,65.52
2017-08-18T08:07:11.977Z,65.05
2017-08-18T08:08:18.051Z,63.56
2017-08-18T08:09:23.937Z,63.71
2017-08-18T08:10:30.070Z,63.42
2017-08-18T08:11:36.182Z,62.68
2017-08-18T08:12:42.263Z,61.67
2017-08-18T08:13:48.331Z,63.70
2017-08-18T08:14:54.376Z,61.42
2017-08-18T08:16:00.498Z,61.13
2017-08-18T08:17:06.929Z,61.11
2017-08-18T08:18:12.992Z,61.42
2017-08-18T08:19:19.042Z,62.72
2017-08-18T08:20:25.077Z,63.83
2017-08-18T08:21:31.522Z,63.29
2017-08-18T08:22:37.749Z,62.67
2017-08-18T08:23:43.862Z,63.01
2017-08-18T08:24:49.927Z,62.56
2017-08-18T08:26:00.729Z,62.19
2017-08-18T08:27:06.813Z,62.84
2017-08-18T08:28:12.835Z,62.04
2017-08-18T08:29:18.675Z,60.53
2017-08-18T08:30:24.707Z,60.99
2017-08-18T08:31:30.800Z,62.57
2017-08-18T08:32:36.847Z,61.35
2017-08-18T08:33:42.929Z,63.03
2017-08-18T08:34:48.982Z,63.41
2017-08-18T08:35:55.086Z,63.07
2017-08-18T08:37:09.369Z,63.68
2017-08-18T08:38:24.357Z,62.95
2017-08-18T08:39:30.483Z,62.53
2017-08-18T08:40:36.604Z,63.88
2017-08-18T08:41:42.673Z,62.84
2017-08-18T08:42:48.812Z,64.38
2017-08-18T08:43:54.887Z,63.96
2017-08-18T08:45:00.955Z,63.29
2017-08-18T08:46:06.694Z,62.11
2017-08-18T08:47:12.719Z,62.86
2017-08-18T08:48:18.814Z,63.42
2017-08-18T08:49:24.858Z,63.06
2017-08-18T08:50:30.909Z,61.29
2017-08-18T08:51:36.945Z,62.67
2017-08-18T08:52:43.014Z,61.37
2017-08-18T08:53:49.120Z,60.00
2017-08-18T08:54:55.185Z,60.13
2017-08-18T08:56:01.308Z,60.00
2017-08-18T08:57:07.347Z,59.82
2017-08-18T08:58:13.396Z,62.19
2017-08-18T08:59:19.505Z,60.56
2017-08-18T09:00:25.555Z,58.76
2017-08-18T09:01:31.640Z,59.35
2017-08-18T09:02:37.679Z,59.45
2017-08-18T09:03:43.773Z,59.25
2017-08-18T09:04:49.889Z,58.32
2017-08-18T09:05:55.926Z,60.99
2017-08-18T09:07:03.075Z,59.64
2017-08-18T09:08:12.182Z,62.45
2017-08-18T09:09:18.282Z,59.93
2017-08-18T09:10:24.396Z,60.52
2017-08-18T09:11:30.441Z,60.98
2017-08-18T09:12:36.513Z,59.55
2017-08-18T09:13:42.607Z,59.28
2017-08-18T09:14:48.657Z,58.96
2017-08-18T09:15:55.022Z,60.19
2017-08-18T09:17:01.114Z,59.51
2017-08-18T09:18:07.174Z,61.25
2017-08-18T09:19:13.257Z,60.60
2017-08-18T09:20:19.367Z,61.15
2017-08-18T09:21:25.416Z,60.58
2017-08-18T09:22:31.460Z,61.53
2017-08-18T09:23:37.344Z,59.37
2017-08-18T09:24:43.101Z,59.41
2017-08-18T09:25:49.207Z,59.82
2017-08-18T09:26:55.290Z,60.12
2017-08-18T09:28:07.919Z,60.94
2017-08-18T09:29:13.689Z,60.67
2017-08-18T09:30:19.725Z,61.39
2017-08-18T09:31:25.861Z,59.56
2017-08-18T09:32:31.904Z,60.70
2017-08-18T09:33:37.972Z,59.71
2017-08-18T09:34:43.988Z,61.24
2017-08-18T09:35:50.074Z,60.86
2017-08-18T09:36:56.166Z,59.25
2017-08-18T09:38:02.294Z,60.10
2017-08-18T09:39:08.059Z,59.99
2017-08-18T09:40:13.806Z,59.84
2017-08-18T09:41:19.857Z,59.31
2017-08-18T09:42:25.951Z,61.67
2017-08-18T09:43:32.016Z,60.69
2017-08-18T09:44:38.032Z,59.56
2017-08-18T09:45:44.098Z,58.76
2017-08-18T09:46:50.186Z,60.43
2017-08-18T09:48:07.168Z,60.73
2017-08-18T09:49:24.206Z,60.63
2017-08-18T09:50:41.092Z,60.80
2017-08-18T09:51:57.962Z,62.55
2017-08-18T09:53:14.947Z,63.27
2017-08-18T09:54:32.700Z,60.71
2017-08-18T09:55:51.199Z,60.66
2017-08-18T09:57:08.486Z,60.39
2017-08-18T09:58:38.459Z,63.20
2017-08-18T10:00:19.341Z,61.58
2017-08-18T10:01:26.039Z,60.39
2017-08-18T10:02:33.115Z,60.54
2017-08-18T10:03:42.466Z,61.35
2017-08-18T10:04:50.065Z,59.74
2017-08-18T10:05:56.081Z,59.97
2017-08-18T10:07:03.465Z,59.78
2017-08-18T10:08:09.106Z,60.45
2017-08-18T10:09:21.491Z,59.81
2017-08-18T10:10:28.353Z,60.23
2017-08-18T10:11:34.065Z,59.48
2017-08-18T10:12:40.498Z,58.96
2017-08-18T10:13:47.239Z,59.07
2017-08-18T10:14:54.730Z,58.90
2017-08-18T10:16:02.430Z,58.64
2017-08-18T10:17:08.425Z,58.95
2017-08-18T10:18:15.750Z,58.79
2017-08-18T10:19:23.110Z,58.67
2017-08-18T10:20:29.663Z,58.74
2017-08-18T10:21:35.887Z,60.58
2017-08-18T10:22:43.533Z,60.06
2017-08-18T10:23:51.589Z,60.81
2017-08-18T10:24:59.313Z,59.95
2017-08-18T10:26:05.858Z,58.87
2017-08-18T10:27:13.397Z,57.95
2017-08-18T10:28:20.610Z,58.53
2017-08-18T10:29:26.647Z,57.13
2017-08-18T10:30:33.215Z,60.36
2017-08-18T10:31:41.052Z,58.67
2017-08-18T10:32:48.524Z,57.63
2017-08-18T10:33:56.057Z,58.78
2017-08-18T10:35:03.069Z,57.57
2017-08-18T10:36:11.314Z,58.50
2017-08-18T10:37:18.597Z,60.92
2017-08-18T10:38:25.354Z,59.37
2017-08-18T10:39:32.300Z,59.30
2017-08-18T10:40:39.285Z,58.86
2017-08-18T10:41:45.152Z,59.27
2017-08-18T10:42:52.489Z,59.57
2017-08-18T10:43:59.292Z,61.79
2017-08-18T10:45:04.910Z,61.18
2017-08-18T10:46:10.196Z,60.18
2017-08-18T10:47:16.921Z,58.98
2017-08-18T10:48:23.287Z,59.57
2017-08-18T10:49:29.753Z,61.28
2017-08-18T10:50:36.787Z,60.99
2017-08-18T10:51:43.756Z,59.73
2017-08-18T10:52:49.636Z,58.74
2017-08-18T10:53:54.887Z,59.33
2017-08-18T10:55:00.182Z,58.77
2017-08-18T10:56:05.738Z,59.88
2017-08-18T10:57:11.301Z,60.05
2017-08-18T10:58:16.867Z,59.76
2017-08-18T10:59:22.422Z,61.98
2017-08-18T11:00:27.757Z,61.34
2017-08-18T11:01:33.352Z,63.48
2017-08-18T11:02:38.901Z,59.95
2017-08-18T11:03:44.495Z,61.62
2017-08-18T11:04:50.082Z,60.41
2017-08-18T11:05:55.438Z,60.50
2017-08-18T11:07:00.739Z,60.95
2017-08-18T11:08:06.316Z,61.69
2017-08-18T11:09:11.914Z,62.91
2017-08-18T11:10:17.172Z,63.38
2017-08-18T11:11:22.456Z,63.41
2017-08-18T11:12:27.707Z,63.91
2017-08-18T11:13:33.269Z,64.51
2017-08-18T11:14:38.970Z,64.19
2017-08-18T11:15:44.533Z,63.06
2017-08-18T11:16:50.123Z,63.73
2017-08-18T11:17:55.392Z,64.63
2017-08-18T11:19:00.683Z,66.93
2017-08-18T11:20:06.285Z,64.13
2017-08-18T11:21:11.866Z,64.20
2017-08-18T11:22:17.447Z,63.74
2017-08-18T11:23:23.066Z,62.90
2017-08-18T11:24:28.352Z,62.28
2017-08-18T11:25:33.673Z,64.66
2017-08-18T11:26:38.921Z,62.51
2017-08-18T11:27:44.671Z,60.89
2017-08-18T11:28:50.966Z,61.59
2017-08-18T11:29:56.289Z,61.88
2017-08-18T11:31:01.858Z,61.49
2017-08-18T11:32:07.531Z,65.47
2017-08-18T11:33:13.116Z,63.21
2017-08-18T11:34:18.693Z,63.13
2017-08-18T11:35:24.316Z,64.78
2017-08-18T11:36:29.899Z,63.37
2017-08-18T11:37:35.466Z,62.11
2017-08-18T11:38:41.034Z,62.57
2017-08-18T11:39:46.595Z,62.02
2017-08-18T11:40:52.199Z,62.36
2017-08-18T11:41:57.813Z,60.23
2017-08-18T11:43:03.441Z,59.63
2017-08-18T11:44:09.029Z,57.68
2017-08-18T11:45:14.567Z,58.36
2017-08-18T11:46:20.195Z,59.84
2017-08-18T11:47:25.763Z,58.14
2017-08-18T11:48:31.354Z,58.63
2017-08-18T11:49:36.664Z,58.78
2017-08-18T11:50:42.244Z,56.75
2017-08-18T11:51:47.854Z,57.80
2017-08-18T11:52:53.578Z,57.30
2017-08-18T11:53:59.393Z,57.77
2017-08-18T11:55:04.685Z,57.10
2017-08-18T11:56:10.228Z,58.40
2017-08-18T11:57:15.824Z,56.50
2017-08-18T11:58:21.381Z,57.26
2017-08-18T11:59:26.938Z,58.11
2017-08-18T12:00:32.100Z,58.17
2017-08-18T12:01:37.395Z,56.18
2017-08-18T12:02:42.734Z,55.46
2017-08-18T12:03:48.321Z,56.21
2017-08-18T12:04:53.588Z,56.95
2017-08-18T12:05:58.905Z,57.63
2017-08-18T12:07:04.163Z,58.00
2017-08-18T12:08:09.503Z,57.26
2017-08-18T12:09:14.778Z,57.25
2017-08-18T12:10:20.318Z,58.95
2017-08-18T12:11:25.617Z,58.55
2017-08-18T12:12:31.166Z,59.16
2017-08-18T12:13:36.770Z,55.25
2017-08-18T12:14:42.033Z,56.19
2017-08-18T12:15:47.292Z,54.95
2017-08-18T12:16:52.848Z,54.99
2017-08-18T12:17:58.096Z,54.38
2017-08-18T12:19:03.396Z,54.42
2017-08-18T12:20:08.712Z,54.00
2017-08-18T12:21:13.981Z,55.79
2017-08-18T12:22:19.280Z,56.74
2017-08-18T12:23:24.584Z,54.68
2017-08-18T12:24:29.899Z,55.19
2017-08-18T12:25:35.454Z,53.61
2017-08-18T12:26:40.718Z,53.18
2017-08-18T12:27:46.054Z,53.64
2017-08-18T12:28:51.341Z,54.48
2017-08-18T12:29:56.689Z,54.54
2017-08-18T12:31:02.937Z,55.54
2017-08-18T12:32:08.806Z,55.72
2017-08-18T12:33:14.114Z,52.94
2017-08-18T12:34:21.070Z,53.09
2017-08-18T12:35:29.630Z,54.01
2017-08-18T12:36:37.439Z,54.13
2017-08-18T12:37:44.877Z,53.10
2017-08-18T12:38:53.200Z,52.30
2017-08-18T12:40:01.630Z,52.50
2017-08-18T12:41:10.888Z,54.39
2017-08-18T12:42:18.060Z,53.98
2017-08-18T12:43:24.292Z,53.70
2017-08-18T12:44:29.957Z,54.58
2017-08-18T12:45:37.097Z,54.02
2017-08-18T12:46:43.402Z,53.54
2017-08-18T12:47:48.666Z,53.49
2017-08-18T12:48:55.778Z,53.21
2017-08-18T12:50:03.387Z,54.21
2017-08-18T12:51:11.387Z,53.17
2017-08-18T12:52:20.334Z,54.04
2017-08-18T12:53:28.127Z,55.73
2017-08-18T12:54:36.311Z,54.06
2017-08-18T12:55:47.834Z,53.40
2017-08-18T12:56:55.932Z,54.98
2017-08-18T12:58:05.388Z,55.21
2017-08-18T12:59:12.157Z,55.22
2017-08-18T13:00:21.949Z,55.96
2017-08-18T13:01:29.861Z,56.00
2017-08-18T13:02:37.205Z,55.90
2017-08-18T13:03:44.290Z,56.27
2017-08-18T13:04:53.091Z,56.77
2017-08-18T13:06:00.852Z,56.94
2017-08-18T13:07:09.454Z,56.97
2017-08-18T13:08:16.692Z,56.42
2017-08-18T13:09:22.151Z,56.17
2017-08-18T13:10:27.455Z,56.28
2017-08-18T13:11:32.773Z,56.70
2017-08-18T13:12:38.054Z,56.29
2017-08-18T13:13:43.623Z,54.79
2017-08-18T13:14:48.894Z,55.97
2017-08-18T13:15:54.166Z,56.68
2017-08-18T13:16:59.463Z,57.60
2017-08-18T13:18:06.311Z,57.74
2017-08-18T13:19:15.624Z,57.23
2017-08-18T13:20:23.522Z,56.04
2017-08-18T13:21:29.700Z,56.91
2017-08-18T13:22:36.885Z,56.01
2017-08-18T13:23:43.210Z,55.63
2017-08-18T13:24:50.841Z,56.50
2017-08-18T13:25:58.445Z,58.06
2017-08-18T13:27:04.536Z,57.00
2017-08-18T13:28:11.615Z,56.59
2017-08-18T13:29:19.232Z,55.70
2017-08-18T13:30:27.310Z,56.66
2017-08-18T13:31:33.621Z,57.64
2017-08-18T13:32:39.491Z,56.44
2017-08-18T13:33:47.562Z,58.85
2017-08-18T13:34:55.367Z,56.18
2017-08-18T13:36:02.690Z,54.85
2017-08-18T13:37:10.133Z,56.85
2017-08-18T13:38:18.805Z,56.98
2017-08-18T13:39:26.484Z,53.53
2017-08-18T13:40:32.297Z,54.08
2017-08-18T13:41:37.582Z,53.11
2017-08-18T13:42:42.839Z,52.40
2017-08-18T13:43:48.125Z,51.51
2017-08-18T13:44:53.414Z,51.39
2017-08-18T13:45:58.665Z,51.61
2017-08-18T13:47:03.996Z,50.28
2017-08-18T13:48:09.281Z,50.30
2017-08-18T13:49:14.568Z,49.99
2017-08-18T13:50:19.861Z,50.52
2017-08-18T13:51:25.126Z,50.83
2017-08-18T13:52:30.480Z,52.28
2017-08-18T13:53:35.803Z,49.89
2017-08-18T13:54:41.072Z,49.09
2017-08-18T13:55:46.371Z,49.72
2017-08-18T13:56:51.642Z,48.33
2017-08-18T13:57:57.061Z,49.45
2017-08-18T13:59:02.401Z,50.52
2017-08-18T14:00:07.651Z,50.15
2017-08-18T14:01:12.983Z,50.11
2017-08-18T14:02:18.260Z,51.37
2017-08-18T14:03:23.583Z,53.09
2017-08-18T14:04:28.854Z,53.10
2017-08-18T14:05:34.151Z,54.80
2017-08-18T14:06:39.506Z,54.23
2017-08-18T14:07:44.807Z,55.31
2017-08-18T14:08:50.156Z,54.38
2017-08-18T14:09:55.456Z,55.09
2017-08-18T14:11:00.727Z,56.55
2017-08-18T14:12:05.989Z,53.69
2017-08-18T14:13:11.278Z,52.60
2017-08-18T14:14:16.437Z,52.81
2017-08-18T14:15:21.712Z,50.85
2017-08-18T14:16:26.993Z,49.73
2017-08-18T14:17:32.270Z,50.56
2017-08-18T14:18:37.572Z,51.00
2017-08-18T14:19:42.884Z,52.70
2017-08-18T14:20:48.157Z,55.03
2017-08-18T14:21:53.237Z,53.85
2017-08-18T14:22:58.519Z,54.12
2017-08-18T14:24:03.785Z,54.03
2017-08-18T14:25:15.013Z,55.53
2017-08-18T14:26:26.042Z,55.13
2017-08-18T14:27:46.487Z,55.16
2017-08-18T14:28:52.237Z,55.50
2017-08-18T14:29:57.997Z,54.96
2017-08-18T14:31:03.824Z,55.26
2017-08-18T14:32:09.896Z,56.17
2017-08-18T14:33:15.692Z,58.55
2017-08-18T14:34:21.444Z,57.19
2017-08-18T14:35:27.222Z,57.87
2017-08-18T14:36:33.524Z,55.54
2017-08-18T14:37:39.851Z,57.71
2017-08-18T14:38:46.348Z,54.70
2017-08-18T14:39:53.153Z,56.27
2017-08-18T14:40:59.173Z,56.61
2017-08-18T14:42:04.969Z,55.46